createdAt,value
2019-05-25T00:00:51.833Z,14.00
2019-05-25T00:03:20.356Z,14.00
2019-05-25T00:05:49.772Z,13.90
2019-05-25T00:08:18.069Z,13.90
2019-05-25T00:10:46.538Z,13.90
2019-05-25T00:13:14.884Z,13.90
2019-05-25T00:15:43.203Z,13.90
2019-05-25T00:18:11.679Z,13.80
2019-05-25T00:20:40.969Z,13.70
2019-05-25T00:23:09.261Z,13.70
2019-05-25T00:25:37.713Z,13.70
2019-05-25T00:28:07.116Z,13.70
2019-05-25T00:30:35.427Z,13.60
2019-05-25T00:33:03.821Z,13.60
2019-05-25T00:35:32.296Z,13.70
2019-05-25T00:38:00.588Z,13.60
2019-05-25T00:40:28.919Z,13.60
2019-05-25T00:42:57.217Z,13.60
2019-05-25T00:45:25.562Z,13.50
2019-05-25T00:47:53.984Z,13.40
2019-05-25T00:50:22.271Z,13.40
2019-05-25T00:52:50.606Z,13.30
2019-05-25T00:55:19.033Z,13.30
2019-05-25T00:57:47.454Z,13.20
2019-05-25T01:00:16.151Z,13.20
2019-05-25T01:02:44.579Z,13.20
2019-05-25T01:05:13.262Z,13.20
2019-05-25T01:07:41.562Z,13.10
2019-05-25T01:10:10.189Z,13.10
2019-05-25T01:12:38.511Z,13.00
2019-05-25T01:15:09.244Z,13.10
2019-05-25T01:17:37.629Z,13.20
2019-05-25T01:20:09.118Z,13.20
2019-05-25T01:22:37.433Z,13.20
2019-05-25T01:25:06.359Z,13.10
2019-05-25T01:27:34.669Z,13.10
2019-05-25T01:30:04.269Z,13.00
2019-05-25T01:32:32.731Z,13.00
2019-05-25T01:35:01.093Z,12.90
2019-05-25T01:37:30.486Z,12.90
2019-05-25T01:39:58.817Z,12.90
2019-05-25T01:42:27.234Z,13.00
2019-05-25T01:44:55.677Z,13.00
2019-05-25T01:47:24.206Z,13.10
2019-05-25T01:49:52.533Z,13.20
2019-05-25T01:52:20.997Z,13.20
2019-05-25T01:54:59.415Z,13.30
2019-05-25T01:57:19.496Z,13.30
2019-05-25T01:59:47.927Z,13.20
2019-05-25T02:02:16.270Z,13.30
2019-05-25T02:04:44.554Z,13.30
2019-05-25T02:07:12.936Z,13.20
2019-05-25T02:09:41.321Z,13.20
2019-05-25T02:12:09.631Z,13.20
2019-05-25T02:14:38.041Z,13.20
2019-05-25T02:17:06.346Z,13.20
2019-05-25T02:19:34.661Z,13.10
2019-05-25T02:22:03.124Z,13.00
2019-05-25T02:24:31.528Z,13.10
2019-05-25T02:26:59.914Z,13.10
2019-05-25T02:29:29.248Z,13.10
2019-05-25T02:31:57.523Z,13.10
2019-05-25T02:34:25.976Z,13.00
2019-05-25T02:36:54.364Z,13.00
2019-05-25T02:39:22.639Z,13.00
2019-05-25T02:41:51.035Z,12.90
2019-05-25T02:44:19.524Z,13.00
2019-05-25T02:46:47.807Z,13.00
2019-05-25T02:49:16.091Z,13.00
2019-05-25T02:51:44.439Z,13.00
2019-05-25T02:54:12.733Z,13.00
2019-05-25T02:56:41.051Z,13.00
2019-05-25T02:59:09.398Z,13.10
2019-05-25T03:01:37.670Z,13.20
2019-05-25T03:04:05.961Z,13.20
2019-05-25T03:06:34.866Z,13.20
2019-05-25T03:09:05.635Z,13.30
2019-05-25T03:11:34.359Z,13.30
2019-05-25T03:14:03.325Z,13.20
2019-05-25T03:16:31.717Z,13.20
2019-05-25T03:19:00.027Z,13.30
2019-05-25T03:21:28.431Z,13.30
2019-05-25T03:23:56.754Z,13.30
2019-05-25T03:26:25.146Z,13.30
2019-05-25T03:28:53.560Z,13.30
2019-05-25T03:31:21.853Z,13.30
2019-05-25T03:33:51.282Z,13.30
2019-05-25T03:36:19.643Z,13.30
2019-05-25T03:38:48.112Z,13.30
2019-05-25T03:41:16.532Z,13.30
2019-05-25T03:43:44.907Z,13.30
2019-05-25T03:46:13.196Z,13.30
2019-05-25T03:48:41.517Z,13.40
2019-05-25T03:51:09.844Z,13.40
2019-05-25T03:53:38.267Z,13.40
2019-05-25T03:56:06.721Z,13.40
2019-05-25T03:58:35.119Z,13.40
2019-05-25T04:01:03.532Z,13.40
2019-05-25T04:03:31.834Z,13.30
2019-05-25T04:06:00.262Z,13.30
2019-05-25T04:08:28.639Z,13.30
2019-05-25T04:10:57.082Z,13.40
2019-05-25T04:13:25.431Z,13.40
2019-05-25T04:15:53.731Z,13.30
2019-05-25T04:18:22.203Z,13.40
2019-05-25T04:20:53.062Z,13.30
2019-05-25T04:23:21.289Z,13.40
2019-05-25T04:25:49.716Z,13.30
2019-05-25T04:28:18.051Z,13.30
2019-05-25T04:30:46.346Z,13.40
2019-05-25T04:33:14.726Z,13.30
2019-05-25T04:35:43.129Z,13.40
2019-05-25T04:38:11.515Z,13.40
2019-05-25T04:40:39.947Z,13.30
2019-05-25T04:43:08.377Z,13.30
2019-05-25T04:45:36.698Z,13.40
2019-05-25T04:48:05.173Z,13.40
2019-05-25T04:50:33.473Z,13.40
2019-05-25T04:53:01.819Z,13.50
2019-05-25T04:55:30.348Z,13.50
2019-05-25T04:57:58.636Z,13.50
2019-05-25T05:00:26.972Z,13.60
2019-05-25T05:02:55.410Z,13.80
2019-05-25T05:05:23.704Z,13.90
2019-05-25T05:07:52.243Z,14.00
2019-05-25T05:10:20.663Z,14.10
2019-05-25T05:12:49.501Z,14.20
2019-05-25T05:15:19.866Z,14.40
2019-05-25T05:17:48.223Z,14.40
2019-05-25T05:20:16.834Z,14.50
2019-05-25T05:22:45.251Z,14.60
2019-05-25T05:25:13.674Z,14.60
2019-05-25T05:27:41.982Z,14.60
2019-05-25T05:30:10.716Z,14.40
2019-05-25T05:32:39.049Z,14.30
2019-05-25T05:35:09.487Z,14.30
2019-05-25T05:37:40.006Z,14.30
2019-05-25T05:40:08.821Z,14.40
2019-05-25T05:42:40.197Z,14.50
2019-05-25T05:45:10.159Z,14.40
2019-05-25T05:47:42.839Z,14.40
2019-05-25T05:50:11.834Z,14.50
2019-05-25T05:52:40.737Z,14.50
2019-05-25T05:55:12.318Z,14.50
2019-05-25T05:57:40.604Z,14.40
2019-05-25T06:00:10.400Z,14.40
2019-05-25T06:02:38.976Z,14.40
2019-05-25T06:05:07.279Z,14.50
2019-05-25T06:07:35.735Z,14.60
2019-05-25T06:10:06.966Z,14.80
2019-05-25T06:12:35.368Z,14.90
2019-05-25T06:15:04.562Z,14.90
2019-05-25T06:17:33.096Z,15.00
2019-05-25T06:20:01.571Z,15.20
2019-05-25T06:22:29.976Z,15.30
2019-05-25T06:24:58.354Z,15.30
2019-05-25T06:27:28.107Z,15.50
2019-05-25T06:29:56.466Z,15.50
2019-05-25T06:32:25.897Z,15.60
2019-05-25T06:34:54.211Z,15.60
2019-05-25T06:37:22.518Z,15.60
2019-05-25T06:39:50.968Z,15.80
2019-05-25T06:42:19.279Z,15.60
2019-05-25T06:44:47.683Z,15.80
2019-05-25T06:47:16.217Z,16.00
2019-05-25T06:49:44.995Z,15.60
2019-05-25T06:52:13.469Z,15.80
2019-05-25T06:54:41.877Z,15.90
2019-05-25T06:57:10.341Z,16.40
2019-05-25T06:59:38.778Z,16.60
2019-05-25T07:02:07.148Z,16.60
2019-05-25T07:04:35.530Z,16.50
2019-05-25T07:07:03.954Z,16.40
2019-05-25T07:09:32.471Z,16.40
2019-05-25T07:12:01.509Z,16.70
2019-05-25T07:14:29.900Z,17.20
2019-05-25T07:16:58.331Z,17.70
2019-05-25T07:19:27.618Z,17.90
2019-05-25T07:21:56.087Z,18.20
2019-05-25T07:24:25.058Z,18.50
2019-05-25T07:26:53.586Z,18.70
2019-05-25T07:29:21.903Z,18.90
2019-05-25T07:31:50.386Z,19.40
2019-05-25T07:34:18.848Z,19.50
2019-05-25T07:36:47.221Z,19.40
2019-05-25T07:39:15.661Z,19.40
2019-05-25T07:41:44.078Z,19.60
2019-05-25T07:44:12.383Z,19.90
2019-05-25T07:46:41.798Z,20.10
2019-05-25T07:49:10.223Z,20.20
2019-05-25T07:51:38.562Z,20.50
2019-05-25T07:54:07.536Z,20.50
2019-05-25T07:56:35.969Z,20.60
2019-05-25T07:59:04.701Z,20.70
2019-05-25T08:01:33.192Z,20.50
2019-05-25T08:04:01.619Z,20.80
2019-05-25T08:06:30.048Z,21.20
2019-05-25T08:08:58.501Z,20.80
2019-05-25T08:11:26.832Z,20.70
2019-05-25T08:13:55.146Z,20.70
2019-05-25T08:16:23.474Z,20.80
2019-05-25T08:18:51.794Z,21.00
2019-05-25T08:21:20.239Z,20.40
2019-05-25T08:23:48.775Z,20.70
2019-05-25T08:26:17.279Z,20.90
2019-05-25T08:28:45.704Z,20.60
2019-05-25T08:31:32.093Z,20.60
2019-05-25T08:34:00.621Z,21.00
2019-05-25T08:36:29.828Z,21.10
2019-05-25T08:38:58.519Z,21.30
2019-05-25T08:41:26.960Z,21.50
2019-05-25T08:43:55.273Z,21.60
2019-05-25T08:46:23.488Z,21.80
2019-05-25T08:49:04.635Z,22.10
2019-05-25T08:51:33.006Z,22.20
2019-05-25T08:54:01.339Z,22.70
2019-05-25T08:56:30.889Z,22.50
2019-05-25T08:58:59.296Z,23.00
2019-05-25T09:01:27.666Z,23.10
2019-05-25T09:03:56.066Z,22.90
2019-05-25T09:06:24.489Z,22.80
2019-05-25T09:08:52.826Z,23.20
2019-05-25T09:11:21.238Z,23.60
2019-05-25T09:13:49.721Z,23.90
2019-05-25T09:16:18.297Z,24.10
2019-05-25T09:18:46.631Z,24.10
2019-05-25T09:21:15.096Z,23.70
2019-05-25T09:23:44.469Z,23.80
2019-05-25T09:26:13.612Z,23.80
2019-05-25T09:28:42.171Z,24.10
2019-05-25T09:31:10.544Z,24.00
2019-05-25T09:33:38.969Z,24.20
2019-05-25T09:36:07.326Z,24.10
2019-05-25T09:38:35.809Z,24.40
2019-05-25T09:41:04.122Z,24.30
2019-05-25T09:43:33.996Z,24.10
2019-05-25T09:46:03.317Z,24.30
2019-05-25T09:48:31.913Z,24.80
2019-05-25T09:51:15.180Z,25.10
2019-05-25T09:53:40.979Z,25.40
2019-05-25T09:56:09.379Z,24.80
2019-05-25T09:58:37.709Z,24.60
2019-05-25T10:01:06.314Z,25.20
2019-05-25T10:03:34.602Z,25.70
2019-05-25T10:06:10.677Z,25.50
2019-05-25T10:08:33.430Z,25.10
2019-05-25T10:11:01.999Z,25.50
2019-05-25T10:13:30.298Z,25.70
2019-05-25T10:15:58.746Z,25.80
2019-05-25T10:18:27.894Z,26.10
2019-05-25T10:20:56.221Z,26.50
2019-05-25T10:23:24.915Z,26.50
2019-05-25T10:25:53.374Z,26.50
2019-05-25T10:28:21.844Z,26.10
2019-05-25T10:30:50.317Z,26.00
2019-05-25T10:33:21.777Z,25.70
2019-05-25T10:35:49.339Z,25.90
2019-05-25T10:38:17.784Z,26.30
2019-05-25T10:40:46.224Z,26.20
2019-05-25T10:43:14.576Z,26.20
2019-05-25T10:45:43.027Z,26.40
2019-05-25T10:48:15.585Z,26.70
2019-05-25T10:50:45.584Z,26.20
2019-05-25T10:53:26.528Z,26.40
2019-05-25T10:55:55.072Z,26.20
2019-05-25T10:58:23.621Z,26.60
2019-05-25T11:00:53.163Z,26.90
2019-05-25T11:03:21.611Z,27.20
2019-05-25T11:05:50.076Z,27.70
2019-05-25T11:08:18.629Z,27.80
2019-05-25T11:10:46.969Z,27.30
2019-05-25T11:13:16.859Z,27.20
2019-05-25T11:15:45.325Z,26.80
2019-05-25T11:18:13.811Z,26.50
2019-05-25T11:20:42.243Z,26.20
2019-05-25T11:23:10.828Z,26.20
2019-05-25T11:25:39.149Z,26.80
2019-05-25T11:28:08.394Z,27.30
2019-05-25T11:30:38.096Z,28.10
2019-05-25T11:33:06.533Z,28.40
2019-05-25T11:35:35.044Z,28.40
2019-05-25T11:38:03.499Z,28.00
2019-05-25T11:40:34.763Z,27.20
2019-05-25T11:43:03.328Z,27.80
2019-05-25T11:45:31.999Z,27.80
2019-05-25T11:48:01.831Z,28.00
2019-05-25T11:50:30.311Z,28.10
2019-05-25T11:52:58.809Z,27.30
2019-05-25T11:55:37.136Z,27.10
2019-05-25T11:58:05.990Z,26.60
2019-05-25T12:00:34.448Z,27.20
2019-05-25T12:03:03.301Z,26.80
2019-05-25T12:05:31.722Z,26.40
2019-05-25T12:08:00.202Z,26.20
2019-05-25T12:10:28.754Z,26.80
2019-05-25T12:12:57.180Z,26.40
2019-05-25T12:15:25.643Z,25.80
2019-05-25T12:17:54.397Z,25.90
2019-05-25T12:20:23.084Z,26.20
2019-05-25T12:22:52.551Z,26.40
2019-05-25T12:25:22.179Z,26.30
2019-05-25T12:27:50.708Z,26.10
2019-05-25T12:30:19.737Z,26.00
2019-05-25T12:32:48.462Z,25.80
2019-05-25T12:35:18.056Z,25.80
2019-05-25T12:37:46.640Z,26.10
2019-05-25T12:40:15.679Z,25.90
2019-05-25T12:42:45.970Z,26.20
2019-05-25T12:45:15.000Z,26.60
2019-05-25T12:47:43.605Z,26.50
2019-05-25T12:50:13.664Z,26.20
2019-05-25T12:52:44.137Z,26.40
2019-05-25T12:55:12.767Z,26.60
2019-05-25T12:57:51.573Z,26.30
2019-05-25T13:00:20.642Z,26.40
2019-05-25T13:02:48.970Z,26.30
2019-05-25T13:05:32.677Z,25.50
2019-05-25T13:07:47.704Z,25.60
2019-05-25T13:10:16.241Z,26.10
2019-05-25T13:12:44.749Z,26.00
2019-05-25T13:15:13.416Z,25.60
2019-05-25T13:17:41.819Z,25.20
2019-05-25T13:20:11.983Z,25.20
2019-05-25T13:22:40.476Z,25.80
2019-05-25T13:25:09.096Z,25.90
2019-05-25T13:27:37.852Z,26.10
2019-05-25T13:30:12.845Z,26.40
2019-05-25T13:32:41.202Z,26.60
2019-05-25T13:35:10.375Z,27.20
2019-05-25T13:37:38.751Z,27.20
2019-05-25T13:40:09.807Z,27.40
2019-05-25T13:42:38.197Z,27.50
2019-05-25T13:45:08.035Z,27.80
2019-05-25T13:47:36.365Z,28.00
2019-05-25T13:50:07.155Z,27.70
2019-05-25T13:52:37.336Z,27.50
2019-05-25T13:55:06.840Z,27.10
2019-05-25T13:57:35.129Z,27.20
2019-05-25T14:00:16.507Z,26.40
2019-05-25T14:02:44.952Z,25.00
2019-05-25T14:05:13.648Z,24.20
2019-05-25T14:07:42.256Z,23.70
2019-05-25T14:10:10.705Z,23.50
2019-05-25T14:12:39.111Z,23.60
2019-05-25T14:15:09.386Z,23.50
2019-05-25T14:17:37.853Z,23.30
2019-05-25T14:20:06.669Z,23.50
2019-05-25T14:22:36.173Z,23.90
2019-05-25T14:25:04.879Z,24.40
2019-05-25T14:27:33.217Z,24.90
2019-05-25T14:30:01.683Z,24.90
2019-05-25T14:32:30.036Z,24.60
2019-05-25T14:34:58.486Z,24.50
2019-05-25T14:37:27.011Z,24.90
2019-05-25T14:39:56.242Z,25.20
2019-05-25T14:42:24.608Z,25.50
2019-05-25T14:44:53.125Z,26.20
2019-05-25T14:47:21.926Z,26.80
2019-05-25T14:49:50.216Z,26.80
2019-05-25T14:52:18.579Z,27.20
2019-05-25T14:54:46.874Z,27.30
2019-05-25T14:57:15.313Z,26.70
2019-05-25T14:59:43.821Z,26.10
2019-05-25T15:02:22.634Z,25.70
2019-05-25T15:04:51.037Z,25.50
2019-05-25T15:07:19.396Z,25.50
2019-05-25T15:09:47.772Z,25.60
2019-05-25T15:12:16.097Z,25.60
2019-05-25T15:14:44.587Z,25.40
2019-05-25T15:17:12.909Z,25.20
2019-05-25T15:19:41.466Z,25.00
2019-05-25T15:22:10.392Z,24.70
2019-05-25T15:24:40.143Z,24.70
2019-05-25T15:27:08.729Z,24.00
2019-05-25T15:29:55.091Z,23.70
2019-05-25T15:32:24.545Z,23.50
2019-05-25T15:34:52.929Z,23.40
2019-05-25T15:37:21.234Z,23.40
2019-05-25T15:39:49.807Z,23.20
2019-05-25T15:42:19.515Z,23.00
2019-05-25T15:47:35.366Z,23.20
2019-05-25T15:50:05.353Z,23.20
2019-05-25T15:52:33.915Z,23.40
2019-05-25T15:55:03.453Z,23.60
2019-05-25T15:57:31.951Z,23.70
2019-05-25T16:00:00.298Z,23.50
2019-05-25T16:02:39.192Z,23.50
2019-05-25T16:05:07.742Z,23.30
2019-05-25T16:07:41.182Z,23.00
2019-05-25T16:10:10.687Z,22.90
2019-05-25T16:12:39.036Z,22.90
2019-05-25T16:15:07.976Z,22.80
2019-05-25T16:17:36.493Z,22.70
2019-05-25T16:20:05.388Z,22.60
2019-05-25T16:22:34.464Z,22.60
2019-05-25T16:25:03.132Z,22.60
2019-05-25T16:27:31.589Z,22.70
2019-05-25T16:30:00.173Z,22.70
2019-05-25T16:32:28.507Z,22.80
2019-05-25T16:34:58.736Z,22.80
2019-05-25T16:37:27.540Z,22.80
2019-05-25T16:39:56.206Z,22.80
2019-05-25T16:42:24.583Z,22.70
2019-05-25T16:44:53.218Z,22.70
2019-05-25T16:47:21.552Z,22.70
2019-05-25T16:49:50.259Z,22.60
2019-05-25T16:52:37.022Z,22.40
2019-05-25T16:57:52.824Z,22.60
2019-05-25T17:00:28.024Z,22.50
2019-05-25T17:03:06.439Z,22.50
2019-05-25T17:05:34.851Z,22.40
2019-05-25T17:08:03.280Z,22.40
2019-05-25T17:10:32.148Z,22.20
2019-05-25T17:13:00.574Z,22.00
2019-05-25T17:15:28.968Z,22.00
2019-05-25T17:17:58.028Z,21.90
2019-05-25T17:20:26.448Z,21.90
2019-05-25T17:22:56.341Z,21.90
2019-05-25T17:25:28.399Z,21.80
2019-05-25T17:27:57.265Z,21.50
2019-05-25T17:30:44.346Z,21.50
2019-05-25T17:33:14.686Z,21.30
2019-05-25T17:35:44.123Z,21.20
2019-05-25T17:38:12.998Z,21.00
2019-05-25T17:40:41.917Z,21.00
2019-05-25T17:43:10.358Z,21.00
2019-05-25T17:45:38.728Z,20.80
2019-05-25T17:48:07.279Z,20.80
2019-05-25T17:50:36.306Z,20.70
2019-05-25T17:53:04.908Z,20.50
2019-05-25T17:55:51.266Z,20.40
2019-05-25T17:58:20.761Z,20.40
2019-05-25T18:00:49.963Z,20.20
2019-05-25T18:03:33.657Z,20.10
2019-05-25T18:06:02.121Z,20.10
2019-05-25T18:08:30.486Z,20.00
2019-05-25T18:10:58.991Z,19.90
2019-05-25T18:13:29.063Z,19.80
2019-05-25T18:15:57.769Z,19.80
2019-05-25T18:18:26.635Z,19.70
2019-05-25T18:20:55.093Z,19.50
2019-05-25T18:23:25.505Z,19.40
2019-05-25T18:25:53.924Z,19.40
2019-05-25T18:28:22.269Z,19.40
2019-05-25T18:30:50.761Z,19.30
2019-05-25T18:33:19.170Z,19.40
2019-05-25T18:35:48.569Z,19.30
2019-05-25T18:38:17.046Z,19.20
2019-05-25T18:40:46.735Z,19.10
2019-05-25T18:43:15.588Z,19.10
2019-05-25T18:45:44.041Z,18.90
2019-05-25T18:48:14.419Z,18.90
2019-05-25T18:50:42.952Z,18.80
2019-05-25T18:53:11.620Z,18.70
2019-05-25T18:55:42.971Z,18.70
2019-05-25T18:58:11.847Z,18.60
2019-05-25T19:00:40.976Z,18.60
2019-05-25T19:03:09.568Z,18.60
2019-05-25T19:05:50.917Z,18.60
2019-05-25T19:08:19.467Z,18.60
2019-05-25T19:10:47.919Z,18.70
2019-05-25T19:13:16.347Z,18.60
2019-05-25T19:15:44.886Z,18.70
2019-05-25T19:18:13.329Z,18.70
2019-05-25T19:20:43.447Z,18.60
2019-05-25T19:23:11.925Z,18.50
2019-05-25T19:25:40.379Z,18.50
2019-05-25T19:28:08.902Z,18.40
2019-05-25T19:30:38.454Z,18.40
2019-05-25T19:33:06.925Z,18.30
2019-05-25T19:35:35.489Z,18.20
2019-05-25T19:38:04.097Z,18.10
2019-05-25T19:40:32.524Z,18.10
2019-05-25T19:43:00.999Z,18.10
2019-05-25T19:45:29.525Z,18.10
2019-05-25T19:47:59.863Z,18.00
2019-05-25T19:50:28.279Z,17.90
2019-05-25T19:52:57.061Z,17.90
2019-05-25T19:55:25.823Z,17.80
2019-05-25T19:57:54.307Z,17.70
2019-05-25T20:00:23.988Z,17.70
2019-05-25T20:02:52.424Z,17.60
2019-05-25T20:05:23.154Z,17.60
2019-05-25T20:07:52.481Z,17.60
2019-05-25T20:10:21.211Z,17.50
2019-05-25T20:12:49.681Z,17.40
2019-05-25T20:15:18.574Z,17.40
2019-05-25T20:17:47.407Z,17.40
2019-05-25T20:20:16.054Z,17.40
2019-05-25T20:22:45.720Z,17.60
2019-05-25T20:25:14.129Z,17.90
2019-05-25T20:27:42.589Z,17.90
2019-05-25T20:30:12.347Z,18.10
2019-05-25T20:32:40.762Z,18.00
2019-05-25T20:35:09.366Z,18.00
2019-05-25T20:37:38.762Z,18.10
2019-05-25T20:40:08.568Z,18.10
2019-05-25T20:42:38.512Z,18.10
2019-05-25T20:45:07.245Z,18.00
2019-05-25T20:47:37.349Z,18.10
2019-05-25T20:50:06.854Z,18.20
2019-05-25T20:52:35.161Z,18.30
2019-05-25T20:55:04.244Z,18.00
2019-05-25T20:57:33.018Z,18.10
2019-05-25T21:00:01.571Z,17.90
2019-05-25T21:02:30.771Z,17.80
2019-05-25T21:04:59.427Z,17.80
2019-05-25T21:07:28.190Z,17.70
2019-05-25T21:09:56.736Z,17.60
2019-05-25T21:12:25.291Z,17.60
2019-05-25T21:14:53.625Z,17.50
2019-05-25T21:17:22.199Z,17.40
2019-05-25T21:19:50.815Z,17.40
2019-05-25T21:22:19.225Z,17.40
2019-05-25T21:24:47.659Z,17.30
2019-05-25T21:27:16.529Z,17.30
2019-05-25T21:29:44.969Z,17.30
2019-05-25T21:32:14.155Z,17.30
2019-05-25T21:34:42.568Z,17.30
2019-05-25T21:37:11.926Z,17.20
2019-05-25T21:39:40.336Z,17.20
2019-05-25T21:42:09.066Z,17.10
2019-05-25T21:44:37.445Z,16.70
2019-05-25T21:47:05.952Z,16.20
2019-05-25T21:49:34.329Z,16.00
2019-05-25T21:52:02.925Z,15.80
2019-05-25T21:54:31.257Z,15.60
2019-05-25T21:56:59.921Z,15.40
2019-05-25T21:59:28.234Z,15.30
2019-05-25T22:01:58.931Z,15.20
2019-05-25T22:04:27.489Z,15.10
2019-05-25T22:06:56.082Z,15.00
2019-05-25T22:09:36.899Z,14.90
2019-05-25T22:12:05.242Z,14.80
2019-05-25T22:14:33.850Z,14.70
2019-05-25T22:17:02.274Z,14.60
2019-05-25T22:19:30.659Z,14.60
2019-05-25T22:22:00.264Z,14.60
2019-05-25T22:24:28.729Z,14.50
2019-05-25T22:26:57.180Z,14.50
2019-05-25T22:29:25.666Z,14.50
2019-05-25T22:31:54.174Z,14.50
2019-05-25T22:34:22.569Z,14.60
2019-05-25T22:36:51.026Z,14.70
2019-05-25T22:39:19.529Z,14.70
2019-05-25T22:41:47.966Z,14.70
2019-05-25T22:44:16.331Z,14.80
2019-05-25T22:46:44.946Z,14.80
2019-05-25T22:49:13.255Z,14.80
2019-05-25T22:51:41.534Z,14.80
2019-05-25T22:54:10.001Z,14.70
2019-05-25T22:56:38.451Z,14.60
2019-05-25T22:59:06.846Z,14.70
2019-05-25T23:01:35.384Z,14.60
2019-05-25T23:04:03.784Z,14.60
2019-05-25T23:06:32.212Z,14.60
2019-05-25T23:09:00.774Z,14.60
2019-05-25T23:11:41.736Z,14.60
2019-05-25T23:14:10.350Z,14.60
2019-05-25T23:16:39.898Z,14.70
2019-05-25T23:19:08.251Z,14.60
2019-05-25T23:21:36.799Z,14.70
2019-05-25T23:24:05.191Z,14.70
2019-05-25T23:26:33.555Z,14.70
2019-05-25T23:29:01.999Z,14.70
2019-05-25T23:31:30.296Z,14.70
2019-05-25T23:33:58.654Z,14.80
2019-05-25T23:36:27.102Z,14.80
2019-05-25T23:38:55.518Z,14.80
2019-05-25T23:41:23.952Z,14.80
2019-05-25T23:43:54.537Z,14.80
2019-05-25T23:46:22.939Z,14.70
2019-05-25T23:48:51.244Z,14.80
2019-05-25T23:51:19.574Z,14.80
2019-05-25T23:53:47.896Z,14.80
2019-05-25T23:56:16.204Z,14.80
2019-05-25T23:58:44.551Z,14.80
